createdAt,value
2023-02-22T00:02:11.503Z,6.77
2023-02-22T00:04:39.811Z,6.79
2023-02-22T00:07:08.022Z,6.81
2023-02-22T00:09:35.050Z,6.81
2023-02-22T00:12:02.230Z,6.79
2023-02-22T00:14:29.150Z,6.78
2023-02-22T00:16:59.378Z,6.77
2023-02-22T00:19:28.014Z,6.76
2023-02-22T00:21:58.077Z,6.76
2023-02-22T00:24:25.881Z,6.77
2023-02-22T00:26:58.262Z,6.79
2023-02-22T00:29:26.361Z,6.78
2023-02-22T00:31:54.217Z,6.76
2023-02-22T00:34:23.348Z,6.75
2023-02-22T00:36:50.565Z,6.73
2023-02-22T00:39:18.178Z,6.72
2023-02-22T00:41:45.349Z,6.74
2023-02-22T00:44:12.754Z,6.72
2023-02-22T00:46:40.078Z,6.70
2023-02-22T00:49:07.403Z,6.70
2023-02-22T00:51:34.389Z,6.68
2023-02-22T00:54:01.454Z,6.65
2023-02-22T00:56:28.724Z,6.63
2023-02-22T00:58:55.930Z,6.61
2023-02-22T01:01:24.205Z,6.62
2023-02-22T01:03:51.881Z,6.60
2023-02-22T01:06:19.926Z,6.55
2023-02-22T01:08:48.425Z,6.51
2023-02-22T01:11:17.422Z,6.49
2023-02-22T01:13:47.613Z,6.46
2023-02-22T01:16:14.562Z,6.41
2023-02-22T01:18:41.610Z,6.41
2023-02-22T01:21:08.978Z,6.40
2023-02-22T01:23:36.190Z,6.41
2023-02-22T01:26:06.123Z,6.42
2023-02-22T01:28:34.658Z,6.45
2023-02-22T01:31:03.093Z,6.41
2023-02-22T01:33:31.193Z,6.37
2023-02-22T01:36:00.050Z,6.35
2023-02-22T01:38:27.823Z,6.31
2023-02-22T01:40:55.002Z,6.27
2023-02-22T01:43:30.141Z,6.25
2023-02-22T01:46:18.922Z,6.24
2023-02-22T01:48:54.844Z,6.20
2023-02-22T01:51:41.656Z,6.19
2023-02-22T01:54:24.090Z,6.17
2023-02-22T01:57:05.982Z,6.14
2023-02-22T01:59:46.274Z,6.14
2023-02-22T02:02:14.793Z,6.10
2023-02-22T02:04:42.857Z,6.08
2023-02-22T02:07:14.253Z,6.08
2023-02-22T02:09:58.742Z,6.08
2023-02-22T02:12:29.568Z,6.05
2023-02-22T02:15:31.197Z,6.05
2023-02-22T02:18:04.868Z,6.01
2023-02-22T02:20:51.036Z,5.98
2023-02-22T02:24:11.924Z,5.97
2023-02-22T02:27:13.857Z,5.93
2023-02-22T02:30:02.128Z,5.87
2023-02-22T02:33:18.490Z,5.84
2023-02-22T02:36:32.635Z,5.82
2023-02-22T02:39:19.515Z,5.79
2023-02-22T02:41:52.299Z,5.79
2023-02-22T02:44:41.381Z,5.74
2023-02-22T02:47:24.843Z,5.73
2023-02-22T02:50:10.004Z,5.69
2023-02-22T02:52:41.068Z,5.66
2023-02-22T02:55:11.358Z,5.63
2023-02-22T02:57:41.567Z,5.64
2023-02-22T03:00:39.476Z,5.62
2023-02-22T03:03:47.785Z,5.63
2023-02-22T03:06:56.276Z,5.63
2023-02-22T03:09:48.961Z,5.64
2023-02-22T03:13:05.874Z,5.64
2023-02-22T03:15:53.678Z,5.64
2023-02-22T03:18:54.529Z,5.64
2023-02-22T03:21:34.792Z,5.63
2023-02-22T03:24:30.348Z,5.64
2023-02-22T03:27:14.274Z,5.64
2023-02-22T03:29:51.511Z,5.63
2023-02-22T03:32:28.032Z,5.60
2023-02-22T03:35:06.436Z,5.57
2023-02-22T03:37:46.771Z,5.56
2023-02-22T03:40:26.390Z,5.58
2023-02-22T03:43:10.936Z,5.59
2023-02-22T03:45:49.404Z,5.59
2023-02-22T03:48:37.900Z,5.60
2023-02-22T03:51:06.838Z,5.60
2023-02-22T03:53:37.159Z,5.60
2023-02-22T03:56:11.180Z,5.62
2023-02-22T03:58:47.918Z,5.62
2023-02-22T04:01:15.868Z,5.64
2023-02-22T04:03:43.549Z,5.67
2023-02-22T04:06:12.647Z,5.67
2023-02-22T04:08:39.886Z,5.67
2023-02-22T04:11:08.270Z,5.67
2023-02-22T04:13:35.222Z,5.67
2023-02-22T04:16:03.106Z,5.68
2023-02-22T04:18:30.854Z,5.70
2023-02-22T04:20:58.064Z,5.69
2023-02-22T04:23:39.113Z,5.70
2023-02-22T04:26:06.140Z,5.67
2023-02-22T04:28:33.181Z,5.65
2023-02-22T04:31:18.285Z,5.59
2023-02-22T04:33:45.514Z,5.59
2023-02-22T04:36:16.317Z,5.59
2023-02-22T04:38:44.725Z,5.58
2023-02-22T04:41:12.711Z,5.56
2023-02-22T04:43:40.211Z,5.54
2023-02-22T04:46:22.271Z,5.53
2023-02-22T04:48:50.034Z,5.53
2023-02-22T04:51:21.217Z,5.55
2023-02-22T04:54:03.568Z,5.55
2023-02-22T04:56:32.813Z,5.57
2023-02-22T04:59:00.043Z,5.59
2023-02-22T05:01:33.574Z,5.58
2023-02-22T05:04:07.027Z,5.58
2023-02-22T05:06:34.197Z,5.57
2023-02-22T05:09:01.235Z,5.57
2023-02-22T05:11:28.993Z,5.54
2023-02-22T05:13:56.100Z,5.49
2023-02-22T05:16:23.436Z,5.42
2023-02-22T05:18:50.674Z,5.43
2023-02-22T05:21:17.903Z,5.43
2023-02-22T05:23:45.054Z,5.43
2023-02-22T05:26:12.179Z,5.44
2023-02-22T05:28:39.824Z,5.44
2023-02-22T05:31:10.192Z,5.46
2023-02-22T05:33:37.364Z,5.46
2023-02-22T05:36:04.602Z,5.43
2023-02-22T05:38:31.598Z,5.43
2023-02-22T05:40:58.640Z,5.44
2023-02-22T05:43:25.723Z,5.45
2023-02-22T05:45:52.770Z,5.44
2023-02-22T05:48:22.262Z,5.40
2023-02-22T05:50:50.021Z,5.43
2023-02-22T05:53:17.103Z,5.42
2023-02-22T05:55:46.375Z,5.42
2023-02-22T05:58:13.510Z,5.42
2023-02-22T06:00:41.193Z,5.43
2023-02-22T06:03:10.832Z,5.43
2023-02-22T06:05:40.095Z,5.42
2023-02-22T06:08:08.405Z,5.42
2023-02-22T06:10:35.641Z,5.44
2023-02-22T06:13:05.570Z,5.47
2023-02-22T06:15:33.305Z,5.49
2023-02-22T06:18:00.981Z,5.50
2023-02-22T06:20:31.179Z,5.52
2023-02-22T06:23:01.565Z,5.53
2023-02-22T06:25:31.383Z,5.57
2023-02-22T06:28:00.598Z,5.56
2023-02-22T06:30:29.087Z,5.56
2023-02-22T06:32:56.147Z,5.57
2023-02-22T06:35:23.567Z,5.55
2023-02-22T06:37:50.929Z,5.57
2023-02-22T06:40:18.036Z,5.59
2023-02-22T06:42:48.905Z,5.59
2023-02-22T06:45:18.232Z,5.58
2023-02-22T06:47:46.176Z,5.60
2023-02-22T06:50:26.286Z,5.61
2023-02-22T06:52:53.280Z,5.57
2023-02-22T06:55:27.944Z,5.58
2023-02-22T06:57:55.545Z,5.57
2023-02-22T07:00:25.833Z,5.56
2023-02-22T07:02:53.778Z,5.59
2023-02-22T07:05:24.066Z,5.62
2023-02-22T07:08:02.453Z,5.64
2023-02-22T07:10:33.715Z,5.67
2023-02-22T07:13:02.172Z,5.67
2023-02-22T07:15:32.605Z,5.70
2023-02-22T07:18:00.617Z,5.68
2023-02-22T07:20:31.123Z,5.69
2023-02-22T07:22:58.252Z,5.70
2023-02-22T07:25:27.477Z,5.73
2023-02-22T07:27:55.844Z,5.76
2023-02-22T07:30:30.739Z,5.80
2023-02-22T07:33:01.688Z,5.82
2023-02-22T07:35:31.518Z,5.84
2023-02-22T07:37:59.230Z,5.92
2023-02-22T07:40:28.244Z,6.01
2023-02-22T07:43:10.261Z,6.07
2023-02-22T07:45:37.257Z,6.12
2023-02-22T07:48:06.106Z,6.21
2023-02-22T07:50:34.810Z,6.28
2023-02-22T07:53:06.019Z,6.30
2023-02-22T07:55:34.822Z,6.33
2023-02-22T07:58:07.083Z,6.36
2023-02-22T08:00:43.987Z,6.39
2023-02-22T08:03:14.112Z,6.47
2023-02-22T08:05:46.414Z,6.55
2023-02-22T08:08:18.798Z,6.55
2023-02-22T08:10:47.908Z,6.58
2023-02-22T08:13:16.113Z,6.69
2023-02-22T08:15:44.300Z,6.80
2023-02-22T08:18:15.406Z,6.83
2023-02-22T08:20:45.221Z,6.85
2023-02-22T08:23:14.686Z,6.86
2023-02-22T08:25:42.154Z,6.88
2023-02-22T08:28:17.026Z,6.90
2023-02-22T08:30:44.108Z,6.92
2023-02-22T08:33:15.900Z,6.94
2023-02-22T08:35:43.413Z,6.96
2023-02-22T08:38:21.876Z,7.04
2023-02-22T08:40:50.182Z,7.10
2023-02-22T08:43:19.661Z,7.18
2023-02-22T08:45:48.388Z,7.23
2023-02-22T08:48:16.474Z,7.23
2023-02-22T08:50:44.524Z,7.25
2023-02-22T08:53:14.028Z,7.25
2023-02-22T08:55:42.321Z,7.25
2023-02-22T08:58:11.059Z,7.28
2023-02-22T09:00:41.610Z,7.34
2023-02-22T09:03:16.280Z,7.36
2023-02-22T09:05:44.244Z,7.39
2023-02-22T09:08:12.198Z,7.44
2023-02-22T09:10:39.282Z,7.49
2023-02-22T09:13:07.122Z,7.55
2023-02-22T09:15:39.706Z,7.57
2023-02-22T09:18:13.062Z,7.53
2023-02-22T09:20:42.019Z,7.57
2023-02-22T09:23:09.836Z,7.65
2023-02-22T09:25:38.749Z,7.72
2023-02-22T09:28:11.501Z,7.78
2023-02-22T09:30:38.914Z,7.84
2023-02-22T09:33:18.602Z,7.86
2023-02-22T09:35:50.096Z,7.92
2023-02-22T09:38:23.093Z,8.00
2023-02-22T09:41:01.168Z,8.11
2023-02-22T09:43:43.698Z,8.26
2023-02-22T09:46:26.681Z,8.36
2023-02-22T09:49:07.384Z,8.44
2023-02-22T09:51:45.371Z,8.53
2023-02-22T09:54:40.549Z,8.63
2023-02-22T09:57:17.930Z,8.77
2023-02-22T10:00:07.753Z,8.92
2023-02-22T10:03:08.426Z,8.97
2023-02-22T10:05:44.110Z,9.06
2023-02-22T10:08:19.028Z,9.11
2023-02-22T10:10:56.374Z,9.11
2023-02-22T10:13:42.300Z,9.23
2023-02-22T10:16:50.615Z,9.43
2023-02-22T10:19:57.705Z,9.58
2023-02-22T10:23:00.822Z,9.70
2023-02-22T10:25:35.024Z,9.81
2023-02-22T10:28:43.955Z,9.84
2023-02-22T10:31:25.131Z,9.84
2023-02-22T10:34:03.621Z,9.90
2023-02-22T10:36:30.713Z,9.89
2023-02-22T10:39:27.150Z,9.94
2023-02-22T10:42:05.770Z,10.03
2023-02-22T10:44:34.644Z,10.17
2023-02-22T10:47:06.007Z,10.32
2023-02-22T10:49:41.290Z,10.39
2023-02-22T10:52:31.793Z,10.59
2023-02-22T10:55:15.028Z,10.77
2023-02-22T10:57:49.716Z,10.98
2023-02-22T11:00:39.755Z,11.20
2023-02-22T11:03:22.271Z,11.37
2023-02-22T11:05:50.787Z,11.47
2023-02-22T11:08:20.768Z,11.55
2023-02-22T11:10:57.084Z,11.65
2023-02-22T11:13:41.121Z,11.79
2023-02-22T11:16:31.652Z,11.95
2023-02-22T11:19:25.652Z,12.10
2023-02-22T11:22:22.387Z,12.21
2023-02-22T11:24:58.079Z,12.27
2023-02-22T11:27:46.954Z,12.36
2023-02-22T11:30:33.510Z,12.46
2023-02-22T11:33:25.710Z,12.55
2023-02-22T11:35:59.633Z,12.59
2023-02-22T11:38:29.525Z,12.62
2023-02-22T11:41:23.008Z,12.69
2023-02-22T11:43:52.533Z,12.73
2023-02-22T11:46:27.507Z,12.77
2023-02-22T11:49:09.730Z,12.81
2023-02-22T11:51:53.283Z,12.87
2023-02-22T11:54:58.785Z,12.93
2023-02-22T11:57:53.508Z,12.94
2023-02-22T12:00:50.747Z,12.97
2023-02-22T12:03:44.377Z,13.03
2023-02-22T12:06:32.021Z,13.07
2023-02-22T12:09:18.550Z,13.14
2023-02-22T12:12:16.638Z,13.26
2023-02-22T12:15:21.941Z,13.35
2023-02-22T12:17:59.487Z,13.42
2023-02-22T12:20:54.546Z,13.56
2023-02-22T12:23:34.334Z,13.70
2023-02-22T12:26:28.194Z,13.80
2023-02-22T12:29:05.232Z,13.92
2023-02-22T12:31:53.996Z,14.04
2023-02-22T12:34:49.041Z,14.14
2023-02-22T12:37:31.065Z,14.19
2023-02-22T12:40:27.187Z,14.20
2023-02-22T12:43:16.834Z,14.14
2023-02-22T12:46:02.728Z,14.16
2023-02-22T12:48:38.811Z,14.17
2023-02-22T12:51:41.858Z,14.19
2023-02-22T12:54:34.093Z,14.17
2023-02-22T12:57:16.970Z,14.21
2023-02-22T12:59:56.025Z,14.26
2023-02-22T13:02:38.437Z,14.34
2023-02-22T13:05:06.450Z,14.37
2023-02-22T13:07:58.684Z,14.40
2023-02-22T13:10:53.746Z,14.46
2023-02-22T13:14:07.766Z,14.45
2023-02-22T13:17:01.054Z,14.50
2023-02-22T13:19:58.817Z,14.59
2023-02-22T13:22:56.522Z,14.61
2023-02-22T13:25:42.931Z,14.65
2023-02-22T13:28:12.899Z,14.67
2023-02-22T13:31:35.059Z,14.68
2023-02-22T13:34:22.048Z,14.68
2023-02-22T13:37:23.653Z,14.66
2023-02-22T13:40:26.407Z,14.62
2023-02-22T13:43:38.394Z,14.52
2023-02-22T13:46:58.414Z,14.43
2023-02-22T13:50:20.810Z,14.39
2023-02-22T13:52:52.086Z,14.35
2023-02-22T13:55:29.863Z,14.28
2023-02-22T13:58:12.704Z,14.19
2023-02-22T14:00:56.291Z,14.09
2023-02-22T14:03:41.212Z,14.00
2023-02-22T14:06:30.150Z,13.91
2023-02-22T14:08:57.773Z,13.78
2023-02-22T14:11:43.114Z,13.66
2023-02-22T14:14:14.595Z,13.55
2023-02-22T14:16:42.054Z,13.48
2023-02-22T14:19:23.738Z,13.43
2023-02-22T14:22:07.078Z,13.41
2023-02-22T14:24:48.169Z,13.38
2023-02-22T14:27:17.606Z,13.31
2023-02-22T14:29:56.507Z,13.24
2023-02-22T14:32:35.663Z,13.18
2023-02-22T14:35:26.429Z,13.13
2023-02-22T14:38:00.369Z,13.10
2023-02-22T14:40:34.474Z,13.09
2023-02-22T14:43:14.894Z,13.05
2023-02-22T14:45:55.992Z,13.02
2023-02-22T14:48:43.932Z,12.99
2023-02-22T14:51:25.099Z,12.94
2023-02-22T14:54:03.630Z,12.88
2023-02-22T14:56:44.222Z,12.82
2023-02-22T14:59:25.112Z,12.76
2023-02-22T15:02:13.726Z,12.67
2023-02-22T15:04:44.232Z,12.60
2023-02-22T15:07:27.941Z,12.54
2023-02-22T15:10:25.073Z,12.46
2023-02-22T15:13:10.748Z,12.39
2023-02-22T15:15:55.154Z,12.29
2023-02-22T15:18:27.236Z,12.21
2023-02-22T15:20:59.575Z,12.11
2023-02-22T15:23:42.785Z,12.01
2023-02-22T15:26:35.246Z,11.89
2023-02-22T15:29:09.495Z,11.76
2023-02-22T15:31:41.374Z,11.65
2023-02-22T15:34:12.681Z,11.59
2023-02-22T15:36:40.146Z,11.48
2023-02-22T15:39:33.199Z,11.40
2023-02-22T15:42:20.952Z,11.33
2023-02-22T15:44:54.919Z,11.25
2023-02-22T15:47:25.428Z,11.16
2023-02-22T15:50:27.372Z,11.08
2023-02-22T15:53:00.404Z,11.00
2023-02-22T15:55:36.243Z,10.95
2023-02-22T15:58:23.717Z,10.90
2023-02-22T16:01:05.180Z,10.85
2023-02-22T16:03:48.176Z,10.81
2023-02-22T16:06:42.299Z,10.76
2023-02-22T16:09:19.117Z,10.72
2023-02-22T16:11:47.358Z,10.68
2023-02-22T16:14:37.719Z,10.66
2023-02-22T16:17:24.748Z,10.64
2023-02-22T16:19:53.285Z,10.59
2023-02-22T16:22:35.973Z,10.56
2023-02-22T16:25:35.726Z,10.50
2023-02-22T16:28:35.476Z,10.45
2023-02-22T16:31:03.219Z,10.40
2023-02-22T16:33:33.698Z,10.36
2023-02-22T16:36:05.548Z,10.34
2023-02-22T16:38:33.970Z,10.30
2023-02-22T16:41:01.041Z,10.25
2023-02-22T16:43:32.838Z,10.24
2023-02-22T16:46:01.881Z,10.19
2023-02-22T16:48:32.777Z,10.17
2023-02-22T16:51:08.972Z,10.16
2023-02-22T16:53:37.301Z,10.14
2023-02-22T16:56:09.636Z,10.12
2023-02-22T16:58:40.630Z,10.12
2023-02-22T17:01:08.598Z,10.10
2023-02-22T17:03:35.665Z,10.09
2023-02-22T17:06:02.664Z,10.07
2023-02-22T17:08:30.650Z,10.06
2023-02-22T17:11:00.718Z,10.03
2023-02-22T17:13:29.298Z,10.02
2023-02-22T17:15:57.650Z,10.00
2023-02-22T17:18:30.208Z,9.96
2023-02-22T17:20:57.214Z,9.93
2023-02-22T17:23:24.697Z,9.91
2023-02-22T17:25:56.282Z,9.90
2023-02-22T17:28:24.906Z,9.89
2023-02-22T17:31:01.951Z,9.87
2023-02-22T17:33:33.805Z,9.83
2023-02-22T17:36:04.818Z,9.81
2023-02-22T17:38:32.316Z,9.78
2023-02-22T17:41:01.260Z,9.77
2023-02-22T17:43:29.226Z,9.74
2023-02-22T17:45:56.866Z,9.74
2023-02-22T17:48:25.643Z,9.72
2023-02-22T17:50:53.390Z,9.71
2023-02-22T17:53:22.775Z,9.69
2023-02-22T17:55:50.578Z,9.69
2023-02-22T17:58:18.475Z,9.69
2023-02-22T18:00:50.144Z,9.70
2023-02-22T18:03:25.280Z,9.71
2023-02-22T18:05:59.491Z,9.71
2023-02-22T18:08:29.894Z,9.72
2023-02-22T18:10:57.204Z,9.73
2023-02-22T18:13:27.827Z,9.74
2023-02-22T18:15:59.964Z,9.73
2023-02-22T18:18:28.577Z,9.71
2023-02-22T18:20:59.940Z,9.70
2023-02-22T18:23:30.708Z,9.69
2023-02-22T18:26:10.710Z,9.69
2023-02-22T18:28:39.718Z,9.65
2023-02-22T18:31:16.742Z,9.64
2023-02-22T18:33:50.272Z,9.60
2023-02-22T18:36:23.167Z,9.61
2023-02-22T18:38:54.178Z,9.61
2023-02-22T18:41:26.553Z,9.61
2023-02-22T18:43:55.637Z,9.61
2023-02-22T18:46:25.500Z,9.62
2023-02-22T18:48:55.782Z,9.60
2023-02-22T18:51:24.929Z,9.60
2023-02-22T18:53:56.996Z,9.61
2023-02-22T18:56:29.519Z,9.61
2023-02-22T18:59:01.059Z,9.61
2023-02-22T19:01:29.448Z,9.61
2023-02-22T19:03:57.265Z,9.62
2023-02-22T19:06:24.367Z,9.62
2023-02-22T19:08:51.803Z,9.63
2023-02-22T19:11:23.193Z,9.63
2023-02-22T19:13:56.702Z,9.64
2023-02-22T19:16:27.121Z,9.64
2023-02-22T19:18:57.812Z,9.64
2023-02-22T19:21:29.930Z,9.64
2023-02-22T19:24:03.290Z,9.64
2023-02-22T19:26:30.822Z,9.66
2023-02-22T19:29:04.725Z,9.65
2023-02-22T19:31:33.940Z,9.65
2023-02-22T19:34:10.200Z,9.64
2023-02-22T19:36:39.718Z,9.64
2023-02-22T19:39:07.749Z,9.65
2023-02-22T19:41:34.721Z,9.64
2023-02-22T19:44:02.311Z,9.64
2023-02-22T19:46:29.324Z,9.64
2023-02-22T19:48:57.274Z,9.63
2023-02-22T19:51:28.179Z,9.64
2023-02-22T19:54:02.512Z,9.64
2023-02-22T19:56:31.678Z,9.63
2023-02-22T19:59:03.125Z,9.61
2023-02-22T20:01:33.262Z,9.63
2023-02-22T20:04:04.781Z,9.62
2023-02-22T20:06:44.004Z,9.61
2023-02-22T20:09:16.744Z,9.60
2023-02-22T20:11:47.942Z,9.59
2023-02-22T20:14:23.515Z,9.61
2023-02-22T20:16:52.738Z,9.61
2023-02-22T20:19:22.504Z,9.61
2023-02-22T20:21:50.213Z,9.59
2023-02-22T20:24:20.204Z,9.59
2023-02-22T20:26:48.593Z,9.57
2023-02-22T20:29:16.667Z,9.56
2023-02-22T20:31:44.804Z,9.54
2023-02-22T20:34:11.959Z,9.51
2023-02-22T20:36:41.641Z,9.48
2023-02-22T20:39:15.690Z,9.48
2023-02-22T20:41:46.256Z,9.46
2023-02-22T20:44:16.956Z,9.45
2023-02-22T20:46:45.704Z,9.44
2023-02-22T20:49:19.377Z,9.43
2023-02-22T20:51:48.153Z,9.41
2023-02-22T20:54:16.395Z,9.41
2023-02-22T20:56:46.954Z,9.41
2023-02-22T20:59:17.900Z,9.40
2023-02-22T21:01:47.511Z,9.37
2023-02-22T21:04:14.858Z,9.36
2023-02-22T21:06:43.000Z,9.35
2023-02-22T21:09:19.657Z,9.34
2023-02-22T21:11:46.885Z,9.32
2023-02-22T21:14:18.815Z,9.28
2023-02-22T21:16:49.854Z,9.26
2023-02-22T21:19:25.413Z,9.24
2023-02-22T21:21:59.207Z,9.24
2023-02-22T21:24:28.927Z,9.20
2023-02-22T21:26:58.551Z,9.17
2023-02-22T21:29:27.163Z,9.16
2023-02-22T21:31:54.497Z,9.16
2023-02-22T21:34:22.392Z,9.15
2023-02-22T21:36:50.513Z,9.17
2023-02-22T21:39:20.678Z,9.15
2023-02-22T21:41:52.312Z,9.13
2023-02-22T21:44:20.659Z,9.10
2023-02-22T21:46:49.633Z,9.10
2023-02-22T21:49:22.601Z,9.08
2023-02-22T21:51:51.682Z,9.05
2023-02-22T21:54:19.773Z,9.04
2023-02-22T21:56:47.005Z,9.05
2023-02-22T21:59:20.767Z,9.04
2023-02-22T22:01:55.476Z,9.04
2023-02-22T22:04:28.504Z,9.02
2023-02-22T22:06:58.675Z,9.02
2023-02-22T22:09:37.561Z,9.04
2023-02-22T22:12:11.476Z,9.02
2023-02-22T22:14:38.850Z,9.02
2023-02-22T22:17:07.909Z,9.02
2023-02-22T22:19:41.623Z,9.01
2023-02-22T22:22:08.777Z,9.03
2023-02-22T22:24:36.586Z,9.05
2023-02-22T22:27:06.438Z,9.07
2023-02-22T22:29:34.492Z,9.06
2023-02-22T22:32:02.744Z,9.07
2023-02-22T22:34:29.935Z,9.08
2023-02-22T22:36:58.119Z,9.08
2023-02-22T22:39:26.866Z,9.08
2023-02-22T22:41:54.237Z,9.07
2023-02-22T22:44:24.568Z,9.05
2023-02-22T22:46:54.773Z,9.00
2023-02-22T22:49:24.038Z,8.97
2023-02-22T22:51:51.272Z,8.95
2023-02-22T22:54:18.444Z,8.90
2023-02-22T22:56:45.532Z,8.92
2023-02-22T22:59:13.473Z,8.92
2023-02-22T23:01:46.736Z,8.92
2023-02-22T23:04:16.729Z,8.93
2023-02-22T23:06:47.999Z,8.94
2023-02-22T23:09:19.349Z,8.93
2023-02-22T23:11:50.839Z,8.93
2023-02-22T23:14:31.032Z,8.93
2023-02-22T23:17:03.460Z,8.91
2023-02-22T23:19:36.746Z,8.91
2023-02-22T23:22:05.572Z,8.92
2023-02-22T23:24:36.217Z,8.89
2023-02-22T23:27:10.694Z,8.89
2023-02-22T23:29:41.108Z,8.84
2023-02-22T23:32:09.036Z,8.83
2023-02-22T23:34:41.016Z,8.82
2023-02-22T23:37:10.449Z,8.79
2023-02-22T23:39:38.550Z,8.77
2023-02-22T23:42:08.748Z,8.75
2023-02-22T23:44:35.852Z,8.74
2023-02-22T23:47:03.848Z,8.74
2023-02-22T23:49:35.795Z,8.72
2023-02-22T23:52:08.373Z,8.68
2023-02-22T23:54:40.295Z,8.64
2023-02-22T23:57:08.836Z,8.60
2023-02-22T23:59:37.210Z,8.58
